Time;durP1;ratioP1;P1;durP2;ratioP2;P2;SDS_P1;SDS_P2;PMS_P1;PMS_P2;Temp;Humidity;BMP_temperature;BMP_pressure;BME280_temperature;BME280_humidity;BME280_pressure;Samples;Min_cycle;Max_cycle;Signal;HPM_P1;HPM_P2
2022/01/06 00:00:37;;;;;;;23.58;3.92;;;;;;;3.06;89.75;101541.69;5087780;28;20024;-70
2022/01/06 00:03:03;;;;;;;25.27;3.67;;;;;;;3.05;89.66;101531.28;5079416;28;20263;-70
2022/01/06 00:05:28;;;;;;;20.25;3.25;;;;;;;3.03;90.03;101541.50;5086781;28;20036;-70
2022/01/06 00:07:53;;;;;;;20.17;3.05;;;;;;;3.03;89.95;101543.19;5084134;28;20023;-70
2022/01/06 00:10:19;;;;;;;28.73;4.15;;;;;;;2.99;90.27;101557.53;5078913;28;20251;-70
2022/01/06 00:13:05;;;;;;;15.18;2.53;;;;;;;2.97;90.33;101553.97;5083313;28;20028;-70
2022/01/06 00:15:37;;;;;;;16.77;3.15;;;;;;;2.94;90.43;101544.34;5079672;28;20082;-70
2022/01/06 00:23:35;;;;;;;22.27;3.75;;;;;;;2.89;90.31;101542.28;5078985;28;20063;-70
2022/01/06 00:26:02;;;;;;;22.35;4.00;;;;;;;2.85;90.68;101546.31;5080080;28;20012;-70
2022/01/06 00:28:28;;;;;;;19.50;4.03;;;;;;;2.85;90.86;101554.03;5076371;28;20036;-70
2022/01/06 00:30:54;;;;;;;23.75;4.43;;;;;;;2.83;90.77;101557.31;5079348;28;20020;-70
2022/01/06 00:33:20;;;;;;;18.02;4.13;;;;;;;2.80;91.18;101555.44;5085399;28;20017;-70
2022/01/06 00:35:46;;;;;;;20.85;4.25;;;;;;;2.79;91.30;101566.50;5090893;28;20242;-70
2022/01/06 00:38:12;;;;;;;17.70;4.38;;;;;;;2.78;91.20;101564.72;5097675;28;20024;-70
2022/01/06 00:40:37;;;;;;;18.50;4.60;;;;;;;2.75;91.39;101573.13;5071619;28;20035;-70
2022/01/06 00:43:05;;;;;;;19.40;4.70;;;;;;;2.71;90.75;101573.72;5079965;28;20377;-70
2022/01/06 00:45:32;;;;;;;21.40;4.40;;;;;;;2.70;91.12;101578.75;5079179;28;20031;-70
2022/01/06 00:47:57;;;;;;;22.10;5.03;;;;;;;2.69;91.29;101579.53;5079964;28;20004;-70
2022/01/06 00:50:23;;;;;;;19.83;4.40;;;;;;;2.68;91.59;101573.50;5083946;28;20035;-70
2022/01/06 00:52:49;;;;;;;22.08;5.10;;;;;;;2.68;91.17;101585.47;5083076;28;20040;-70
2022/01/06 00:55:14;;;;;;;23.20;4.78;;;;;;;2.67;91.35;101583.72;5083818;28;20208;-70
2022/01/06 00:57:40;;;;;;;21.52;4.78;;;;;;;2.64;91.14;101583.50;5083878;28;20235;-70
2022/01/06 01:00:06;;;;;;;22.58;4.63;;;;;;;2.59;91.25;101584.09;5086736;28;20008;-70
2022/01/06 01:02:32;;;;;;;17.38;5.13;;;;;;;2.55;91.10;101579.50;5078541;28;20074;-70
2022/01/06 01:04:57;;;;;;;22.98;4.88;;;;;;;2.53;91.16;101577.63;5091688;28;20095;-70
2022/01/06 01:07:22;;;;;;;18.55;4.38;;;;;;;2.49;90.94;101586.81;5101506;28;20024;-70
2022/01/06 01:09:48;;;;;;;23.55;5.13;;;;;;;2.47;90.81;101579.78;5087073;28;20035;-70
2022/01/06 01:12:13;;;;;;;20.17;4.35;;;;;;;2.46;91.24;101590.84;5107123;28;20039;-70
2022/01/06 01:15:04;;;;;;;17.42;4.20;;;;;;;2.44;91.24;101586.47;5085511;28;20029;-70
2022/01/06 01:17:27;;;;;;;18.25;4.90;;;;;;;2.45;91.09;101584.81;5078681;28;20027;-70
2022/01/06 01:19:53;;;;;;;17.23;4.45;;;;;;;2.44;91.03;101583.03;5076864;28;20016;-70
2022/01/06 01:22:18;;;;;;;20.13;5.07;;;;;;;2.41;91.07;101583.69;5081630;28;20036;-70
2022/01/06 01:24:44;;;;;;;18.10;4.30;;;;;;;2.41;90.88;101594.00;5083407;28;20036;-70
2022/01/06 01:27:09;;;;;;;21.58;4.43;;;;;;;2.41;91.02;101593.09;5082064;28;20028;-70
2022/01/06 01:29:44;;;;;;;17.42;4.00;;;;;;;2.38;90.92;101590.34;5092368;28;20016;-70
2022/01/06 01:32:09;;;;;;;18.77;4.25;;;;;;;2.32;90.21;101589.88;5075942;28;20009;-70
2022/01/06 01:34:35;;;;;;;25.02;4.45;;;;;;;2.32;90.79;101592.47;5086756;28;20077;-70
2022/01/06 01:37:00;;;;;;;17.15;4.40;;;;;;;2.32;90.94;101592.47;5089727;28;20023;-70
2022/01/06 01:39:26;;;;;;;19.33;4.72;;;;;;;2.29;91.04;101598.31;5092128;28;20063;-70
2022/01/06 01:41:52;;;;;;;17.80;4.68;;;;;;;2.25;90.68;101601.44;5086943;28;20044;-70
2022/01/06 01:44:19;;;;;;;22.05;4.00;;;;;;;2.23;90.78;101600.44;5086313;28;20028;-70
2022/01/06 01:46:58;;;;;;;17.10;4.40;;;;;;;2.21;90.94;101602.91;5085523;28;20096;-70
2022/01/06 01:51:50;;;;;;;18.23;4.03;;;;;;;2.17;91.01;101624.06;5101245;28;20023;-70
2022/01/06 01:54:16;;;;;;;20.55;4.15;;;;;;;2.14;91.43;101623.81;5086232;28;20024;-70
2022/01/06 01:56:42;;;;;;;22.02;4.60;;;;;;;2.15;90.68;101637.59;5087166;28;20074;-70
2022/01/06 01:59:07;;;;;;;18.48;4.00;;;;;;;2.14;90.68;101643.50;5085487;28;20020;-70
2022/01/06 02:01:32;;;;;;;21.17;3.97;;;;;;;2.10;91.22;101634.69;5081235;28;20630;-70
2022/01/06 02:03:58;;;;;;;21.42;4.63;;;;;;;2.12;90.56;101645.09;5080878;28;20264;-70
2022/01/06 02:06:24;;;;;;;16.63;4.03;;;;;;;2.10;90.61;101642.41;5095444;28;20036;-70
2022/01/06 02:08:51;;;;;;;20.25;4.18;;;;;;;2.11;91.29;101645.88;5089733;28;20024;-70
2022/01/06 02:11:17;;;;;;;18.80;3.90;;;;;;;2.10;90.65;101642.41;5090321;28;20345;-70
2022/01/06 02:13:46;;;;;;;18.45;4.13;;;;;;;2.08;90.96;101639.69;5085546;28;20086;-70
2022/01/06 02:16:12;;;;;;;19.95;4.30;;;;;;;2.08;90.68;101643.97;5079731;28;20283;-70
2022/01/06 02:18:37;;;;;;;16.17;3.47;;;;;;;2.07;91.28;101637.94;5085108;28;20019;-70
2022/01/06 02:21:02;;;;;;;24.60;4.60;;;;;;;2.08;91.16;101643.97;5084578;28;20222;-70
2022/01/06 02:23:28;;;;;;;23.27;5.13;;;;;;;2.06;91.21;101651.56;5081797;28;20175;-70
2022/01/06 02:25:53;;;;;;;19.83;5.38;;;;;;;2.07;91.16;101652.44;5079477;28;20286;-70
2022/01/06 02:28:22;;;;;;;18.92;3.85;;;;;;;2.07;91.36;101649.88;5088482;28;20078;-70
2022/01/06 02:30:50;;;;;;;22.88;3.72;;;;;;;2.05;90.90;101652.34;5084052;28;20016;-70
2022/01/06 02:33:15;;;;;;;21.63;4.65;;;;;;;2.03;90.77;101656.50;5079396;28;20201;-70
2022/01/06 02:35:41;;;;;;;19.05;4.00;;;;;;;2.01;90.83;101658.03;5083174;28;20016;-70
2022/01/06 02:38:08;;;;;;;19.27;3.80;;;;;;;1.99;90.99;101661.31;5089215;28;20043;-70
2022/01/06 02:40:33;;;;;;;18.80;4.85;;;;;;;1.95;90.38;101657.63;5084659;28;20028;-70
2022/01/06 02:42:59;;;;;;;22.83;4.78;;;;;;;1.92;90.56;101652.25;5087453;28;20024;-70
2022/01/06 02:45:28;;;;;;;17.60;4.07;;;;;;;1.87;90.41;101649.38;5084456;28;20046;-70
2022/01/06 02:47:55;;;;;;;20.10;4.10;;;;;;;1.85;90.24;101647.47;5090361;28;20024;-70
2022/01/06 02:50:22;;;;;;;20.88;4.25;;;;;;;1.82;90.87;101648.13;5097126;28;20152;-70
2022/01/06 02:52:48;;;;;;;19.92;5.03;;;;;;;1.80;90.13;101651.41;5083487;28;20021;-70
2022/01/06 02:55:14;;;;;;;19.58;3.47;;;;;;;1.75;90.51;101648.47;5082181;28;20024;-70
2022/01/06 02:57:41;;;;;;;16.70;3.75;;;;;;;1.73;90.55;101648.38;5075469;28;20028;-70
2022/01/06 03:00:12;;;;;;;19.23;3.78;;;;;;;1.75;90.88;101653.59;5079352;28;20271;-70
2022/01/06 03:02:38;;;;;;;21.98;4.25;;;;;;;1.75;91.04;101648.47;5079284;28;20052;-70
2022/01/06 03:05:04;;;;;;;17.88;4.00;;;;;;;1.77;91.36;101652.06;5072702;28;20093;-70
2022/01/06 03:07:31;;;;;;;25.85;4.43;;;;;;;1.78;91.40;101653.81;5089303;28;20063;-70
2022/01/06 03:09:58;;;;;;;17.90;4.15;;;;;;;1.79;91.44;101652.16;5077942;28;20062;-70
2022/01/06 03:12:33;;;;;;;15.52;3.60;;;;;;;1.80;91.22;101651.41;5083755;28;20016;-69
2022/01/06 03:14:59;;;;;;;22.13;4.63;;;;;;;1.81;90.61;101661.78;5083307;28;20022;-70
2022/01/06 03:17:24;;;;;;;21.90;3.72;;;;;;;1.82;90.99;101660.97;5078895;28;20074;-70
2022/01/06 03:19:50;;;;;;;22.60;4.32;;;;;;;1.81;90.72;101663.44;5080287;28;20020;-70
2022/01/06 03:22:16;;;;;;;17.65;3.70;;;;;;;1.80;90.64;101677.09;5084851;28;20102;-70
2022/01/06 03:24:41;;;;;;;28.05;4.75;;;;;;;1.79;90.82;101672.72;5077691;28;20024;-70
2022/01/06 03:27:07;;;;;;;18.88;3.85;;;;;;;1.78;91.19;101676.94;5083270;28;20024;-70
2022/01/06 03:29:32;;;;;;;21.30;4.65;;;;;;;1.78;90.88;101679.53;5081441;28;20020;-70
2022/01/06 03:31:59;;;;;;;15.15;3.40;;;;;;;1.81;90.59;101681.44;5081371;28;20226;-70
2022/01/06 03:34:26;;;;;;;24.73;4.00;;;;;;;1.81;91.21;101684.91;5080746;28;20055;-70
2022/01/06 03:36:51;;;;;;;18.00;3.95;;;;;;;1.81;90.88;101690.06;5078237;28;20021;-70
2022/01/06 03:39:17;;;;;;;12.15;3.40;;;;;;;1.80;90.12;101695.06;5078073;28;20391;-70
2022/01/06 03:41:42;;;;;;;20.42;3.75;;;;;;;1.77;89.70;101682.91;5092388;28;20289;-70
2022/01/06 03:44:07;;;;;;;19.15;3.05;;;;;;;1.76;89.54;101685.34;5086861;28;20020;-70
2022/01/06 03:46:33;;;;;;;12.80;3.60;;;;;;;1.70;89.82;101688.38;5087905;28;20024;-70
2022/01/06 03:48:58;;;;;;;19.58;3.95;;;;;;;1.66;90.05;101688.91;5083718;28;20042;-70
2022/01/06 03:51:24;;;;;;;12.77;3.10;;;;;;;1.64;90.25;101687.94;5069863;28;20028;-70
2022/01/06 03:53:50;;;;;;;21.27;4.40;;;;;;;1.65;90.14;101694.84;5069948;28;20021;-71
2022/01/06 03:56:16;;;;;;;22.83;3.38;;;;;;;1.67;90.69;101696.75;5080604;28;20024;-70
2022/01/06 03:58:41;;;;;;;18.13;3.55;;;;;;;1.67;90.84;101691.59;5085342;28;20279;-70
2022/01/06 04:01:07;;;;;;;21.23;4.38;;;;;;;1.69;90.70;101690.03;5088927;28;20013;-70
2022/01/06 04:03:33;;;;;;;19.17;3.65;;;;;;;1.72;90.59;101686.78;5081697;28;20237;-70
2022/01/06 04:05:58;;;;;;;16.35;3.47;;;;;;;1.73;90.40;101679.19;5078108;28;20135;-70
2022/01/06 04:08:23;;;;;;;18.48;3.38;;;;;;;1.77;91.18;101685.47;5085808;28;20167;-70
2022/01/06 04:10:49;;;;;;;19.15;2.95;;;;;;;1.80;90.29;101687.38;5078673;28;20082;-70
2022/01/06 04:13:14;;;;;;;25.90;4.45;;;;;;;1.83;90.80;101685.91;5085455;28;20000;-70
2022/01/06 04:15:40;;;;;;;22.83;3.42;;;;;;;1.85;90.33;101676.63;5086169;28;20251;-70
2022/01/06 04:18:05;;;;;;;13.25;3.03;;;;;;;1.87;90.35;101680.22;5077118;28;20008;-70
2022/01/06 04:20:30;;;;;;;17.63;3.17;;;;;;;1.89;89.92;101683.75;5080290;28;20024;-70
2022/01/06 04:22:56;;;;;;;22.17;3.22;;;;;;;1.89;90.60;101694.03;5089018;28;20020;-70
2022/01/06 04:25:21;;;;;;;18.08;3.20;;;;;;;1.89;90.09;101703.44;5079228;28;20028;-70
2022/01/06 04:27:46;;;;;;;17.33;3.33;;;;;;;1.90;90.29;101710.38;5084790;28;20079;-70
2022/01/06 04:30:13;;;;;;;17.35;2.83;;;;;;;1.88;89.79;101712.84;5088178;28;20021;-70
2022/01/06 04:32:38;;;;;;;12.23;2.92;;;;;;;1.86;89.81;101716.94;5075387;28;20248;-70
2022/01/06 04:35:05;;;;;;;23.63;3.70;;;;;;;1.85;90.50;101716.84;5084439;28;20025;-70
2022/01/06 04:37:31;;;;;;;22.20;3.65;;;;;;;1.81;90.29;101712.25;5079824;28;20032;-70
2022/01/06 04:39:56;;;;;;;16.23;3.83;;;;;;;1.79;90.53;101707.00;5085180;28;20020;-70
2022/01/06 04:42:21;;;;;;;20.80;3.78;;;;;;;1.77;89.97;101711.16;5089965;28;20046;-70
2022/01/06 04:44:47;;;;;;;21.98;3.55;;;;;;;1.77;89.93;101718.88;5087188;28;20281;-70
2022/01/06 04:47:12;;;;;;;24.02;4.00;;;;;;;1.73;90.46;101725.44;5089741;28;20035;-70
2022/01/06 04:49:37;;;;;;;18.05;3.47;;;;;;;1.73;90.98;101727.13;5091950;28;20046;-70
2022/01/06 04:52:03;;;;;;;21.17;3.67;;;;;;;1.70;90.08;101732.94;5099386;28;20046;-70
2022/01/06 04:54:29;;;;;;;14.18;3.03;;;;;;;1.69;90.80;101731.13;5081214;28;20299;-70
2022/01/06 04:56:54;;;;;;;18.30;3.55;;;;;;;1.66;91.00;101737.72;5091888;28;20222;-70
2022/01/06 04:59:19;;;;;;;22.27;3.83;;;;;;;1.65;90.32;101736.84;5088412;28;20067;-70
2022/01/06 05:01:45;;;;;;;20.17;3.92;;;;;;;1.61;90.76;101731.34;5080122;28;20091;-70
2022/01/06 05:04:10;;;;;;;26.00;3.78;;;;;;;1.60;90.58;101732.16;5085327;28;20201;-70
2022/01/06 05:06:36;;;;;;;15.75;3.50;;;;;;;1.60;91.17;101739.84;5080687;28;20048;-70
2022/01/06 05:09:02;;;;;;;23.08;3.85;;;;;;;1.56;91.05;101744.75;5083604;28;20166;-70
2022/01/06 05:11:27;;;;;;;17.20;3.28;;;;;;;1.55;90.14;101737.84;5083390;28;20029;-70
2022/01/06 05:13:52;;;;;;;25.17;4.07;;;;;;;1.55;90.91;101747.19;5086155;28;20017;-70
2022/01/06 05:16:18;;;;;;;17.30;3.80;;;;;;;1.53;90.60;101748.75;5087173;28;20017;-70
2022/01/06 05:18:43;;;;;;;17.80;3.50;;;;;;;1.52;90.84;101757.25;5083241;28;20062;-70
2022/01/06 05:21:09;;;;;;;17.77;3.58;;;;;;;1.48;90.25;101751.00;5090178;28;20967;-70
2022/01/06 05:23:35;;;;;;;17.20;3.65;;;;;;;1.44;90.25;101751.53;5077684;28;20028;-70
2022/01/06 05:26:01;;;;;;;16.73;3.40;;;;;;;1.44;90.88;101756.69;5086222;28;20083;-70
2022/01/06 05:28:26;;;;;;;15.73;3.25;;;;;;;1.42;90.86;101760.81;5076178;28;20028;-70
2022/01/06 05:30:52;;;;;;;17.17;3.63;;;;;;;1.39;90.06;101760.56;5086775;28;20008;-70
2022/01/06 05:33:17;;;;;;;18.20;3.88;;;;;;;1.36;91.20;101770.59;5077964;28;20268;-70
2022/01/06 05:35:43;;;;;;;17.40;4.07;;;;;;;1.33;90.59;101771.28;5092850;28;20093;-70
2022/01/06 05:38:08;;;;;;;16.35;3.88;;;;;;;1.31;90.17;101769.38;5080219;28;20020;-70
2022/01/06 05:40:33;;;;;;;16.70;4.20;;;;;;;1.29;90.16;101773.47;5091703;28;20028;-70
2022/01/06 05:42:59;;;;;;;24.52;4.68;;;;;;;1.26;90.88;101773.25;5082005;28;20019;-70
2022/01/06 05:45:25;;;;;;;34.00;4.95;;;;;;;1.23;91.15;101784.19;5094182;28;20020;-70
2022/01/06 05:47:50;;;;;;;21.45;3.95;;;;;;;1.22;90.53;101784.97;5086796;28;20234;-70
2022/01/06 05:50:16;;;;;;;20.80;4.10;;;;;;;1.19;91.04;101777.94;5083008;28;20028;-70
2022/01/06 05:52:41;;;;;;;16.40;3.92;;;;;;;1.17;90.96;101773.44;5076880;28;20091;-70
2022/01/06 05:55:08;;;;;;;15.73;3.63;;;;;;;1.16;91.14;101776.78;5084818;28;20021;-70
2022/01/06 05:57:33;;;;;;;22.92;4.25;;;;;;;1.13;90.90;101781.69;5086596;28;20049;-70
2022/01/06 05:59:58;;;;;;;18.45;4.03;;;;;;;1.11;91.02;101789.25;5077755;28;20024;-70
2022/01/06 06:02:24;;;;;;;15.15;3.65;;;;;;;1.10;91.17;101792.63;5073668;28;20029;-70
2022/01/06 06:04:49;;;;;;;13.98;4.90;;;;;;;1.09;90.53;101793.41;5106274;28;20041;-70
2022/01/06 06:07:14;;;;;;;14.07;4.68;;;;;;;1.08;90.14;101794.16;5082787;28;20028;-70
2022/01/06 06:09:40;;;;;;;19.55;4.13;;;;;;;1.08;90.99;101798.41;5074769;28;20013;-70
2022/01/06 06:12:06;;;;;;;21.83;4.40;;;;;;;1.06;91.13;101805.09;5079628;28;20176;-71
2022/01/06 06:14:32;;;;;;;16.02;4.65;;;;;;;1.02;91.24;101809.97;5082040;28;20051;-70
2022/01/06 06:16:57;;;;;;;19.17;4.53;;;;;;;1.02;91.23;101807.41;5091159;28;20024;-70
2022/01/06 06:19:22;;;;;;;15.35;4.05;;;;;;;1.03;90.75;101810.91;5103492;28;20159;-70
2022/01/06 06:21:48;;;;;;;21.95;4.15;;;;;;;1.02;90.89;101819.38;5090387;28;20017;-70
2022/01/06 06:24:14;;;;;;;18.48;4.28;;;;;;;1.02;90.70;101814.22;5078150;28;20016;-70
2022/01/06 06:26:39;;;;;;;18.85;4.55;;;;;;;1.01;91.33;101818.47;5086446;28;20028;-71
2022/01/06 06:29:05;;;;;;;17.60;4.85;;;;;;;1.01;91.04;101812.44;5084282;28;20047;-70
2022/01/06 06:31:30;;;;;;;16.42;4.90;;;;;;;1.00;90.62;101820.91;5087273;28;20255;-70
2022/01/06 06:33:55;;;;;;;24.38;5.53;;;;;;;0.97;90.35;101825.78;5091085;28;20028;-71
2022/01/06 06:36:21;;;;;;;16.08;4.55;;;;;;;0.94;90.33;101821.34;5075051;28;20024;-70
2022/01/06 06:38:46;;;;;;;18.30;4.53;;;;;;;0.95;90.76;101827.34;5079937;28;20031;-71
2022/01/06 06:41:11;;;;;;;20.67;4.68;;;;;;;0.95;91.29;101827.34;5088187;28;20016;-71
2022/01/06 06:43:37;;;;;;;18.48;4.47;;;;;;;0.95;91.23;101827.34;5075166;28;20046;-71
2022/01/06 06:46:02;;;;;;;18.23;6.13;;;;;;;0.95;91.15;101822.22;5084157;28;20074;-71
2022/01/06 06:48:27;;;;;;;18.40;4.63;;;;;;;0.94;91.10;101835.81;5079636;28;20031;-70
2022/01/06 06:50:53;;;;;;;15.98;4.35;;;;;;;0.90;89.81;101829.56;5077483;28;20023;-71
2022/01/06 06:53:18;;;;;;;16.77;4.80;;;;;;;0.86;90.40;101836.13;5080206;28;20117;-70
2022/01/06 06:55:44;;;;;;;21.55;4.72;;;;;;;0.82;89.98;101843.47;5087508;28;20047;-70
2022/01/06 06:58:09;;;;;;;21.02;5.05;;;;;;;0.78;90.38;101850.03;5083215;28;20028;-70
2022/01/06 07:00:35;;;;;;;18.20;5.10;;;;;;;0.76;91.07;101850.69;5089425;28;20095;-70
2022/01/06 07:03:00;;;;;;;18.42;5.78;;;;;;;0.77;91.21;101857.56;5072024;28;20043;-71
2022/01/06 07:05:26;;;;;;;15.30;4.60;;;;;;;0.76;91.39;101851.56;5083408;28;20042;-70
2022/01/06 07:07:51;;;;;;;17.08;4.53;;;;;;;0.75;90.44;101854.88;5080225;28;20259;-70
2022/01/06 07:10:16;;;;;;;22.63;4.93;;;;;;;0.76;90.86;101855.81;5090724;28;20024;-71
2022/01/06 07:12:44;;;;;;;16.88;4.82;;;;;;;0.75;90.99;101862.59;5078201;28;20020;-70
2022/01/06 07:15:11;;;;;;;19.98;6.10;;;;;;;0.75;90.87;101867.72;5086278;28;20051;-70
2022/01/06 07:17:37;;;;;;;13.60;4.90;;;;;;;0.76;91.54;101866.06;5084386;28;20016;-70
2022/01/06 07:20:04;;;;;;;16.75;5.07;;;;;;;0.76;91.39;101884.03;5087144;28;20020;-70
2022/01/06 07:22:29;;;;;;;20.08;6.68;;;;;;;0.75;91.26;101880.53;5076459;28;20034;-70
2022/01/06 07:24:54;;;;;;;25.23;8.18;;;;;;;0.74;91.63;101883.91;5082090;28;20028;-70
2022/01/06 07:27:19;;;;;;;20.13;5.22;;;;;;;0.74;92.28;101894.16;5081047;28;20377;-70
2022/01/06 07:29:45;;;;;;;24.02;5.53;;;;;;;0.75;91.82;101888.25;5085574;28;20202;-70
2022/01/06 07:32:10;;;;;;;23.77;5.60;;;;;;;0.75;91.29;101885.66;5077352;28;20078;-70
2022/01/06 07:34:35;;;;;;;28.73;6.47;;;;;;;0.76;91.71;101891.72;5069550;28;20027;-70
2022/01/06 07:37:01;;;;;;;20.55;5.78;;;;;;;0.76;91.15;101896.84;5095352;28;20012;-70
2022/01/06 07:39:27;;;;;;;25.85;6.28;;;;;;;0.75;91.22;101895.06;5083706;28;20119;-70
2022/01/06 07:41:52;;;;;;;17.55;5.07;;;;;;;0.74;91.48;101895.81;5086596;28;20658;-70
2022/01/06 07:44:18;;;;;;;17.70;5.20;;;;;;;0.74;91.28;101903.50;5086678;28;20067;-70
2022/01/06 07:46:45;;;;;;;16.20;4.60;;;;;;;0.72;91.04;101895.69;5080564;28;20222;-70
2022/01/06 07:49:11;;;;;;;17.67;5.40;;;;;;;0.72;91.96;101894.81;5073446;28;20044;-70
2022/01/06 07:51:36;;;;;;;15.18;5.30;;;;;;;0.71;91.65;101903.28;5087972;28;20032;-70
2022/01/06 07:54:02;;;;;;;16.83;5.35;;;;;;;0.70;91.72;101902.38;5081194;28;20069;-70
2022/01/06 07:56:27;;;;;;;17.15;5.10;;;;;;;0.71;91.28;101893.94;5089040;28;20046;-70
2022/01/06 07:58:53;;;;;;;18.77;5.47;;;;;;;0.73;91.42;101907.75;5080559;28;20051;-70
2022/01/06 08:01:18;;;;;;;25.25;7.53;;;;;;;0.72;90.84;101905.94;5087658;28;20099;-70
2022/01/06 08:03:44;;;;;;;21.00;6.82;;;;;;;0.73;91.74;101902.63;5080605;28;20031;-70
2022/01/06 08:06:11;;;;;;;18.92;5.95;;;;;;;0.74;91.43;101906.06;5080781;28;20041;-70
2022/01/06 08:08:37;;;;;;;20.13;6.95;;;;;;;0.74;91.64;101909.56;5076004;28;20031;-70
2022/01/06 08:11:02;;;;;;;21.10;6.22;;;;;;;0.75;91.64;101911.31;5093488;28;20181;-70
2022/01/06 08:13:28;;;;;;;21.27;7.30;;;;;;;0.76;91.02;101912.25;5086561;28;20065;-70
2022/01/06 08:15:53;;;;;;;21.50;6.65;;;;;;;0.73;90.26;101914.56;5093105;28;20012;-70
2022/01/06 08:18:18;;;;;;;18.80;6.00;;;;;;;0.69;91.20;101915.97;5086673;28;20091;-70
2022/01/06 08:20:44;;;;;;;19.88;6.13;;;;;;;0.68;90.83;101917.66;5078680;28;20062;-70
2022/01/06 08:23:09;;;;;;;16.25;5.32;;;;;;;0.69;91.28;101921.97;5084574;28;20095;-70
2022/01/06 08:25:35;;;;;;;14.90;5.43;;;;;;;0.72;91.50;101916.22;5078326;28;20043;-70
2022/01/06 08:28:01;;;;;;;18.05;5.50;;;;;;;0.76;91.89;101925.94;5086166;28;20020;-70
2022/01/06 08:30:26;;;;;;;17.23;5.55;;;;;;;0.79;91.88;101928.75;5079384;28;20347;-70
2022/01/06 08:32:52;;;;;;;14.57;5.68;;;;;;;0.83;91.33;101919.66;5075768;28;20214;-70
2022/01/06 08:35:18;;;;;;;19.02;6.20;;;;;;;0.88;91.88;101927.72;5078331;28;20072;-70
2022/01/06 08:37:43;;;;;;;22.52;6.60;;;;;;;0.91;91.45;101921.16;5080010;28;20166;-70
2022/01/06 08:40:09;;;;;;;17.02;5.93;;;;;;;0.95;92.04;101924.88;5082551;28;20174;-70
2022/01/06 08:42:35;;;;;;;24.38;7.18;;;;;;;0.99;91.89;101922.66;5088672;28;20059;-70
2022/01/06 08:45:00;;;;;;;20.40;7.28;;;;;;;1.04;91.54;101925.59;5071178;28;20032;-70
2022/01/06 08:47:25;;;;;;;19.48;8.00;;;;;;;1.08;91.53;101922.50;5073947;28;20064;-71
2022/01/06 08:49:51;;;;;;;21.77;8.63;;;;;;;1.12;92.21;101923.66;5078111;28;20028;-71
2022/01/06 08:52:16;;;;;;;25.00;8.98;;;;;;;1.14;91.54;101922.97;5083180;28;20165;-70
2022/01/06 08:54:41;;;;;;;23.83;9.23;;;;;;;1.18;92.12;101930.16;5085044;28;20013;-70
2022/01/06 08:57:07;;;;;;;25.13;8.80;;;;;;;1.24;91.61;101934.00;5084788;28;20012;-70
2022/01/06 08:59:32;;;;;;;26.65;8.80;;;;;;;1.29;91.46;101942.94;5096662;28;20020;-70
2022/01/06 09:01:58;;;;;;;26.10;8.95;;;;;;;1.32;91.74;101943.19;5096407;28;20034;-70
2022/01/06 09:04:23;;;;;;;27.45;10.13;;;;;;;1.32;91.27;101943.19;5083836;28;20032;-70
2022/01/06 09:06:50;;;;;;;29.02;9.95;;;;;;;1.32;92.06;101938.06;5079211;28;20029;-70
2022/01/06 09:09:16;;;;;;;25.80;10.13;;;;;;;1.35;91.95;101948.56;5075230;28;20087;-70
2022/01/06 09:11:42;;;;;;;25.20;10.90;;;;;;;1.39;92.57;101941.22;5093175;28;20013;-70
2022/01/06 09:14:07;;;;;;;24.63;10.70;;;;;;;1.43;92.55;101956.88;5084992;28;20043;-70
2022/01/06 09:16:33;;;;;;;26.00;12.43;;;;;;;1.47;92.50;101948.63;5071342;28;20025;-70
2022/01/06 09:18:58;;;;;;;29.38;11.55;;;;;;;1.53;92.12;101946.53;5069189;28;20179;-70
2022/01/06 09:21:24;;;;;;;30.30;12.25;;;;;;;1.58;92.56;101950.38;5071602;28;20033;-70
2022/01/06 09:23:54;;;;;;;27.05;10.45;;;;;;;1.65;92.19;101954.28;5071951;28;20081;-70
2022/01/06 09:26:20;;;;;;;28.15;12.43;;;;;;;1.70;91.92;101955.56;5071058;28;20025;-70
2022/01/06 09:28:45;;;;;;;27.08;11.25;;;;;;;1.72;91.62;101956.56;5085675;28;20221;-70
2022/01/06 09:31:11;;;;;;;31.23;11.88;;;;;;;1.72;91.51;101957.47;5092071;28;20030;-70
2022/01/06 09:33:36;;;;;;;36.42;12.63;;;;;;;1.71;92.18;101962.50;5082880;28;20291;-71
2022/01/06 09:36:02;;;;;;;27.80;11.98;;;;;;;1.71;92.21;101960.81;5076711;28;20639;-70
2022/01/06 09:38:28;;;;;;;34.60;13.57;;;;;;;1.73;92.34;101963.50;5080440;28;20037;-70
2022/01/06 09:40:53;;;;;;;33.25;12.10;;;;;;;1.77;92.36;101973.25;5082605;28;20031;-70
2022/01/06 09:43:25;;;;;;;30.27;12.32;;;;;;;1.79;92.57;101976.81;5072591;28;20042;-71
2022/01/06 09:45:51;;;;;;;35.25;12.52;;;;;;;1.80;92.68;101976.03;5082821;28;20034;-73
2022/01/06 09:48:20;;;;;;;30.55;12.30;;;;;;;1.84;92.61;101978.06;5075212;28;20063;-71
2022/01/06 09:50:45;;;;;;;37.13;13.40;;;;;;;1.87;92.22;101974.84;5076530;28;20043;-71
2022/01/06 09:53:11;;;;;;;31.33;13.10;;;;;;;1.90;92.63;101978.53;5089729;28;20032;-70
2022/01/06 09:55:38;;;;;;;36.45;13.73;;;;;;;1.93;92.46;101980.47;5089387;28;20170;-71
2022/01/06 09:58:04;;;;;;;37.97;14.95;;;;;;;1.97;92.73;101979.00;5081145;28;20009;-71
2022/01/06 10:00:31;;;;;;;28.98;13.15;;;;;;;2.01;92.66;101988.75;5084106;28;20034;-70
2022/01/06 10:02:59;;;;;;;35.25;12.68;;;;;;;2.04;92.28;101982.19;5096164;28;20035;-71
2022/01/06 10:05:25;;;;;;;28.95;12.52;;;;;;;2.07;92.53;101981.50;5083044;28;20111;-71
2022/01/06 10:07:53;;;;;;;33.72;14.30;;;;;;;2.12;92.72;101985.31;5081153;28;20028;-70
2022/01/06 10:10:27;;;;;;;33.08;13.05;;;;;;;2.16;92.71;101979.63;5075969;28;20074;-70
2022/01/06 10:12:56;;;;;;;31.25;12.77;;;;;;;2.21;92.52;101982.56;5075287;28;20142;-70
2022/01/06 10:15:24;;;;;;;27.70;13.35;;;;;;;2.24;92.26;101981.09;5076642;28;20032;-70
2022/01/06 10:17:49;;;;;;;30.25;12.07;;;;;;;2.30;92.84;101977.22;5072845;28;20058;-70
2022/01/06 10:20:18;;;;;;;37.50;13.32;;;;;;;2.34;92.84;101976.66;5071507;28;20028;-70
2022/01/06 10:22:49;;;;;;;35.58;14.23;;;;;;;2.36;92.42;101977.66;5078820;28;20027;-71
2022/01/06 10:25:16;;;;;;;34.35;12.38;;;;;;;2.40;92.81;101970.31;5085277;28;20074;-71
2022/01/06 10:27:41;;;;;;;31.05;12.77;;;;;;;2.44;91.92;101971.44;5093228;28;20020;-70
2022/01/06 10:30:08;;;;;;;34.72;13.20;;;;;;;2.48;92.08;101969.97;5100466;28;20103;-71
2022/01/06 10:32:34;;;;;;;36.72;14.93;;;;;;;2.53;91.69;101966.94;5073829;28;20183;-71
2022/01/06 10:35:03;;;;;;;45.28;13.82;;;;;;;2.57;92.25;101963.84;5075016;28;20301;-71
2022/01/06 10:37:35;;;;;;;36.92;12.48;;;;;;;2.67;92.44;101973.13;5074705;28;20026;-65
2022/01/06 10:40:08;;;;;;;30.10;13.10;;;;;;;2.75;92.19;101966.88;5069811;28;20153;-65
2022/01/06 10:42:35;;;;;;;28.60;11.93;;;;;;;2.83;92.73;101970.00;5083173;28;20036;-64
2022/01/06 10:45:11;;;;;;;29.27;11.90;;;;;;;2.90;93.00;101967.09;5089451;28;20024;-65
2022/01/06 10:47:39;;;;;;;34.03;11.98;;;;;;;2.96;92.05;101975.25;5105051;28;20174;-64
2022/01/06 10:50:32;;;;;;;33.10;10.38;;;;;;;2.99;91.83;101968.56;5072456;28;20029;-65
2022/01/06 10:53:05;;;;;;;31.80;11.10;;;;;;;3.01;91.81;101975.59;5089168;28;20024;-65
2022/01/06 10:55:31;;;;;;;29.13;11.15;;;;;;;3.06;91.95;101971.69;5105068;28;20015;-65
2022/01/06 10:58:01;;;;;;;34.88;11.98;;;;;;;3.10;91.98;101967.63;5105330;28;20097;-65
2022/01/06 11:00:29;;;;;;;35.10;11.30;;;;;;;3.13;91.92;101963.59;5099070;28;20039;-64
2022/01/06 11:03:11;;;;;;;27.55;10.38;;;;;;;3.17;91.81;101956.97;5101914;28;20107;-65
2022/01/06 11:05:40;;;;;;;34.85;11.35;;;;;;;3.21;91.69;101956.41;5104806;28;20036;-65
2022/01/06 11:08:07;;;;;;;30.05;10.10;;;;;;;3.26;91.93;101956.78;5102135;28;20028;-65
2022/01/06 11:10:37;;;;;;;20.77;9.02;;;;;;;3.28;91.32;101952.59;5100927;28;20032;-65
2022/01/06 11:13:04;;;;;;;26.13;9.25;;;;;;;3.31;91.21;101956.28;5095585;28;20019;-65
2022/01/06 11:15:29;;;;;;;25.15;9.85;;;;;;;3.35;91.27;101956.53;5105123;28;20173;-65
2022/01/06 11:17:55;;;;;;;29.60;11.00;;;;;;;3.37;91.35;101954.94;5103713;28;20297;-65
2022/01/06 11:20:28;;;;;;;27.58;10.07;;;;;;;3.39;91.41;101941.38;5101560;28;20084;-64
2022/01/06 11:22:56;;;;;;;25.80;9.30;;;;;;;3.43;91.21;101943.41;5086822;28;20183;-69
2022/01/06 11:25:38;;;;;;;28.00;9.20;;;;;;;3.48;91.55;101944.59;5085088;28;20044;-70
2022/01/06 11:28:10;;;;;;;24.98;9.02;;;;;;;3.52;91.63;101955.13;5080938;28;20055;-69